Time;durP1;ratioP1;P1;durP2;ratioP2;P2;SDS_P1;SDS_P2;PMS_P1;PMS_P2;Temp;Humidity;BMP_temperature;BMP_pressure;BME280_temperature;BME280_humidity;BME280_pressure;Samples;Min_cycle;Max_cycle;Signal;HPM_P1;HPM_P2
2022/10/09 00:00:45;;;;;;;10.73;6.20;;;6.60;99.90;;;;;;4334931;28;10000707;-79
2022/10/09 00:03:12;;;;;;;9.18;6.72;;;6.60;99.90;;;;;;5082013;28;20039;-79
2022/10/09 00:05:38;;;;;;;13.00;7.00;;;6.60;99.90;;;;;;5088661;28;20424;-79
2022/10/09 00:08:04;;;;;;;7.90;6.85;;;6.60;99.90;;;;;;5088856;28;20134;-79
2022/10/09 00:10:29;;;;;;;13.25;8.25;;;6.60;99.90;;;;;;5090782;28;20032;-80
2022/10/09 00:12:55;;;;;;;17.25;7.47;;;6.70;99.90;;;;;;5085000;28;20126;-79
2022/10/09 00:15:21;;;;;;;8.35;7.10;;;6.70;99.90;;;;;;5091988;28;20047;-79
2022/10/09 00:17:47;;;;;;;12.50;7.45;;;6.80;99.90;;;;;;5093073;28;20050;-79
2022/10/09 00:20:13;;;;;;;13.23;7.72;;;6.80;99.90;;;;;;5086314;28;20024;-79
2022/10/09 00:22:39;;;;;;;13.80;8.68;;;6.80;99.90;;;;;;5088964;28;20085;-80
2022/10/09 00:25:05;;;;;;;12.98;7.82;;;6.80;99.90;;;;;;5082565;28;20532;-80
2022/10/09 00:27:31;;;;;;;10.90;7.43;;;6.80;99.90;;;;;;5084512;28;20023;-79
2022/10/09 00:29:57;;;;;;;11.23;7.07;;;6.70;99.90;;;;;;5086679;28;20475;-79
2022/10/09 00:32:23;;;;;;;10.50;6.82;;;6.70;99.90;;;;;;5087521;28;20028;-79
2022/10/09 00:34:50;;;;;;;11.90;6.93;;;6.70;99.90;;;;;;5038580;28;20064;-79
2022/10/09 00:37:16;;;;;;;11.60;7.13;;;6.70;99.90;;;;;;5031678;28;20172;-80
2022/10/09 00:39:41;;;;;;;7.18;5.90;;;6.70;99.90;;;;;;5030252;28;20116;-80
2022/10/09 00:42:13;;;;;;;9.38;6.07;;;6.70;99.90;;;;;;5026408;28;20041;-79
2022/10/09 00:44:53;;;;;;;9.45;6.45;;;6.60;99.90;;;;;;5030303;28;20120;-79
2022/10/09 00:47:27;;;;;;;9.13;6.03;;;6.60;99.90;;;;;;5028155;28;20100;-79
2022/10/09 00:49:57;;;;;;;9.40;6.35;;;6.60;99.90;;;;;;5029559;28;20213;-79
2022/10/09 00:52:24;;;;;;;8.05;6.00;;;6.60;99.90;;;;;;5028612;28;20038;-79
2022/10/09 00:54:51;;;;;;;7.90;5.50;;;6.60;99.90;;;;;;5030899;28;20044;-79
2022/10/09 00:57:17;;;;;;;10.85;6.55;;;6.50;99.90;;;;;;5028156;28;20053;-78
2022/10/09 00:59:43;;;;;;;7.50;5.97;;;6.50;99.90;;;;;;5030801;28;20553;-79
2022/10/09 01:02:08;;;;;;;8.75;6.38;;;6.40;99.90;;;;;;5039858;28;20033;-78
2022/10/09 01:04:34;;;;;;;7.90;5.45;;;6.30;99.90;;;;;;5033345;28;20077;-79
2022/10/09 01:07:26;;;;;;;7.53;5.53;;;6.40;99.90;;;;;;5030742;28;20067;-78
2022/10/09 01:10:14;;;;;;;7.30;5.65;;;6.40;99.90;;;;;;5030381;28;20057;-79
2022/10/09 01:13:05;;;;;;;7.72;5.70;;;6.30;99.90;;;;;;5029218;28;20064;-79
2022/10/09 01:16:12;;;;;;;8.10;5.90;;;6.20;99.90;;;;;;5033551;28;20105;-79
2022/10/09 01:18:47;;;;;;;7.25;5.53;;;6.20;99.90;;;;;;5033925;28;20477;-79
2022/10/09 01:21:19;;;;;;;8.55;6.03;;;6.20;99.90;;;;;;5032557;28;20051;-79
2022/10/09 01:23:56;;;;;;;7.15;5.47;;;6.20;99.90;;;;;;5029778;28;20572;-80
2022/10/09 01:26:56;;;;;;;9.05;5.88;;;6.10;99.90;;;;;;5027321;28;20371;-79
2022/10/09 01:29:25;;;;;;;7.18;5.30;;;6.10;99.90;;;;;;5031465;28;20029;-79
2022/10/09 01:31:51;;;;;;;8.85;5.90;;;6.10;99.90;;;;;;5031069;28;20206;-80
2022/10/09 01:34:19;;;;;;;8.80;5.68;;;6.10;99.90;;;;;;5028563;28;20064;-79
2022/10/09 01:36:45;;;;;;;8.32;5.53;;;6.10;99.90;;;;;;5026205;28;20021;-80
2022/10/09 01:39:15;;;;;;;7.45;5.63;;;6.10;99.90;;;;;;5030697;28;20032;-79
2022/10/09 01:41:42;;;;;;;6.70;5.60;;;6.20;99.90;;;;;;5033948;28;20029;-80
2022/10/09 01:44:18;;;;;;;6.82;5.13;;;6.20;99.90;;;;;;5032318;28;20366;-80
2022/10/09 01:46:44;;;;;;;8.93;5.32;;;6.10;99.90;;;;;;5032647;28;20041;-79
2022/10/09 01:49:32;;;;;;;8.43;5.00;;;6.20;99.90;;;;;;5028169;28;20689;-79
2022/10/09 01:52:29;;;;;;;8.20;4.72;;;6.20;99.90;;;;;;5032292;28;20034;-79
2022/10/09 01:55:26;;;;;;;10.10;6.22;;;6.20;99.90;;;;;;5036534;28;20032;-79
2022/10/09 01:57:57;;;;;;;10.45;6.68;;;6.20;99.90;;;;;;5026832;28;20478;-79
2022/10/09 02:00:23;;;;;;;10.20;6.68;;;6.00;99.90;;;;;;5027114;28;20060;-79
2022/10/09 02:02:51;;;;;;;12.23;6.88;;;5.90;99.90;;;;;;5023464;28;20462;-79
2022/10/09 02:05:28;;;;;;;9.98;6.95;;;5.70;99.90;;;;;;5029936;28;20033;-79
2022/10/09 02:07:55;;;;;;;8.88;6.65;;;5.60;99.90;;;;;;5031781;28;20116;-79
2022/10/09 02:10:22;;;;;;;11.05;7.30;;;5.60;99.90;;;;;;5025262;28;20033;-79
2022/10/09 02:12:56;;;;;;;11.98;6.82;;;5.50;99.90;;;;;;5025718;28;20037;-79
2022/10/09 02:15:26;;;;;;;12.07;7.15;;;5.40;99.90;;;;;;5027931;28;21084;-78
2022/10/09 02:17:55;;;;;;;10.18;7.07;;;5.40;99.90;;;;;;5029214;28;20096;-79
2022/10/09 02:20:26;;;;;;;8.95;6.53;;;5.30;99.90;;;;;;5032303;28;20120;-78
2022/10/09 02:22:54;;;;;;;13.75;8.13;;;5.30;99.90;;;;;;5029322;28;20033;-79
2022/10/09 02:25:20;;;;;;;11.27;6.50;;;5.30;99.90;;;;;;5028010;28;20931;-78
2022/10/09 02:27:46;;;;;;;9.00;6.15;;;5.20;99.90;;;;;;5031084;28;20017;-78
2022/10/09 02:30:13;;;;;;;10.90;6.32;;;5.30;99.90;;;;;;5028406;28;20520;-78
2022/10/09 02:32:39;;;;;;;7.57;6.57;;;5.30;99.90;;;;;;5035122;28;20025;-79
2022/10/09 02:35:05;;;;;;;7.45;5.20;;;5.30;99.90;;;;;;5030009;28;20449;-78
2022/10/09 02:37:31;;;;;;;7.97;5.97;;;5.40;99.90;;;;;;5030641;28;20029;-79
2022/10/09 02:39:57;;;;;;;8.43;5.65;;;5.40;99.90;;;;;;5030314;28;20447;-79
2022/10/09 02:42:24;;;;;;;10.43;6.20;;;5.50;99.90;;;;;;5031894;28;20314;-79
2022/10/09 02:44:51;;;;;;;7.45;6.05;;;5.60;99.90;;;;;;5031565;28;20039;-79
2022/10/09 02:47:17;;;;;;;8.05;5.75;;;5.60;99.90;;;;;;5030785;28;20021;-79
2022/10/09 02:49:43;;;;;;;10.43;6.50;;;5.70;99.90;;;;;;5030369;28;20044;-79
2022/10/09 02:52:08;;;;;;;9.95;7.63;;;5.70;99.90;;;;;;5029148;28;20033;-79
2022/10/09 02:54:34;;;;;;;12.32;7.80;;;5.70;99.90;;;;;;5039207;28;20136;-79
2022/10/09 02:56:59;;;;;;;10.55;7.65;;;5.70;99.90;;;;;;5041911;28;20044;-79
2022/10/09 02:59:25;;;;;;;11.32;7.15;;;5.60;99.90;;;;;;5042357;28;20025;-79
2022/10/09 03:01:51;;;;;;;7.97;6.75;;;5.40;99.90;;;;;;5032294;28;20482;-79
2022/10/09 03:04:16;;;;;;;8.80;7.25;;;5.30;99.90;;;;;;5031483;28;20033;-79
2022/10/09 03:06:42;;;;;;;8.90;7.50;;;5.20;99.90;;;;;;5040171;28;20029;-79
2022/10/09 03:09:07;;;;;;;9.57;6.78;;;5.20;99.90;;;;;;5036902;28;20574;-78
2022/10/09 03:11:33;;;;;;;10.13;6.53;;;5.10;99.90;;;;;;5033504;28;20033;-79
2022/10/09 03:13:59;;;;;;;8.52;5.85;;;5.10;99.90;;;;;;5036722;28;20040;-79
2022/10/09 03:16:25;;;;;;;6.88;5.97;;;5.10;99.90;;;;;;5034247;28;20482;-78
2022/10/09 03:18:52;;;;;;;12.02;7.03;;;5.10;99.90;;;;;;5033057;28;20021;-79
2022/10/09 03:21:22;;;;;;;7.45;6.10;;;5.10;99.90;;;;;;5035896;28;20501;-78
2022/10/09 03:23:49;;;;;;;8.32;6.40;;;5.10;99.90;;;;;;5040179;28;20037;-78
2022/10/09 03:26:18;;;;;;;8.63;6.43;;;5.10;99.90;;;;;;5034475;28;20147;-79
2022/10/09 03:28:47;;;;;;;11.70;7.13;;;5.00;99.90;;;;;;5030628;28;20501;-79
2022/10/09 03:31:14;;;;;;;10.05;7.30;;;5.00;99.90;;;;;;5029354;28;20378;-78
2022/10/09 03:33:40;;;;;;;7.55;6.50;;;5.10;99.90;;;;;;5022438;28;20041;-78
2022/10/09 03:36:06;;;;;;;7.75;6.30;;;5.00;99.90;;;;;;5028711;28;20492;-78
2022/10/09 03:38:33;;;;;;;9.90;6.70;;;5.00;99.90;;;;;;5031756;28;20434;-78
2022/10/09 03:41:00;;;;;;;10.30;7.30;;;5.00;99.90;;;;;;5032133;28;20017;-78
2022/10/09 03:43:25;;;;;;;10.10;7.13;;;5.00;99.90;;;;;;5036688;28;20036;-79
2022/10/09 03:45:51;;;;;;;9.85;7.38;;;5.00;99.90;;;;;;5027958;28;20021;-78
2022/10/09 03:48:17;;;;;;;11.10;7.25;;;5.00;99.90;;;;;;5035213;28;20115;-78
2022/10/09 03:50:42;;;;;;;8.10;6.53;;;5.00;99.90;;;;;;5025585;28;20520;-78
2022/10/09 03:53:10;;;;;;;9.27;6.55;;;4.90;99.90;;;;;;5026282;28;20068;-79
2022/10/09 03:55:36;;;;;;;10.57;7.20;;;4.90;99.90;;;;;;5028940;28;20037;-80
2022/10/09 03:58:02;;;;;;;10.52;7.10;;;5.00;99.90;;;;;;5026833;28;20080;-79
2022/10/09 04:00:28;;;;;;;8.35;6.43;;;4.90;99.90;;;;;;5024818;28;20025;-79
2022/10/09 04:02:54;;;;;;;7.82;6.10;;;4.90;99.90;;;;;;5028224;28;20270;-78
2022/10/09 04:05:20;;;;;;;7.53;6.18;;;4.80;99.90;;;;;;5031427;28;20025;-79
2022/10/09 04:07:45;;;;;;;8.52;6.97;;;4.90;99.90;;;;;;5027147;28;20429;-79
2022/10/09 04:10:11;;;;;;;11.35;7.03;;;4.80;99.90;;;;;;5032083;28;20403;-79
2022/10/09 04:12:37;;;;;;;11.38;6.68;;;4.80;99.90;;;;;;5039822;28;20025;-79
2022/10/09 04:15:04;;;;;;;9.52;7.28;;;4.80;99.90;;;;;;5033310;28;20025;-78
2022/10/09 04:17:29;;;;;;;8.73;6.97;;;4.80;99.90;;;;;;5031074;28;20029;-78
2022/10/09 04:19:55;;;;;;;8.65;6.63;;;4.80;99.90;;;;;;5029078;28;20032;-78
2022/10/09 04:22:21;;;;;;;8.38;6.07;;;4.70;99.90;;;;;;5028318;28;20030;-78
2022/10/09 04:24:46;;;;;;;6.50;5.80;;;4.70;99.90;;;;;;5037842;28;20413;-78
2022/10/09 04:27:12;;;;;;;9.23;6.28;;;4.60;99.90;;;;;;5035296;28;20364;-78
2022/10/09 04:29:38;;;;;;;7.38;5.88;;;4.60;99.90;;;;;;5027381;28;20051;-78
2022/10/09 04:32:05;;;;;;;8.10;6.32;;;4.60;99.90;;;;;;5033065;28;20037;-79
2022/10/09 04:34:30;;;;;;;8.68;6.95;;;4.60;99.90;;;;;;5033887;28;20610;-78
2022/10/09 04:36:56;;;;;;;9.98;5.95;;;4.60;99.90;;;;;;5035927;28;20032;-79
2022/10/09 04:39:22;;;;;;;6.75;5.30;;;4.60;99.90;;;;;;5036086;28;20555;-78
2022/10/09 04:41:47;;;;;;;5.35;4.85;;;4.50;99.90;;;;;;5029739;28;20215;-78
2022/10/09 04:44:13;;;;;;;5.22;4.72;;;4.40;99.90;;;;;;5028310;28;20037;-78
2022/10/09 04:46:38;;;;;;;6.20;5.38;;;4.40;99.90;;;;;;5030267;28;20112;-78
2022/10/09 04:49:04;;;;;;;6.70;5.10;;;4.40;99.90;;;;;;5036173;28;20167;-77
2022/10/09 04:51:30;;;;;;;8.15;5.40;;;4.40;99.90;;;;;;5026630;28;20461;-78
2022/10/09 04:53:55;;;;;;;9.77;6.60;;;4.40;99.90;;;;;;5031992;28;20498;-78
2022/10/09 04:56:22;;;;;;;6.85;5.60;;;4.50;99.90;;;;;;5034754;28;20504;-78
2022/10/09 04:58:49;;;;;;;5.95;5.35;;;4.40;99.90;;;;;;5032335;28;20115;-78
2022/10/09 05:01:26;;;;;;;8.60;5.97;;;4.40;99.90;;;;;;5032168;28;20040;-78
2022/10/09 05:03:53;;;;;;;7.55;6.75;;;4.30;99.90;;;;;;5034795;28;20086;-78
2022/10/09 05:06:20;;;;;;;7.65;6.85;;;4.30;99.90;;;;;;5038171;28;20025;-79
2022/10/09 05:08:45;;;;;;;12.65;6.55;;;4.20;99.90;;;;;;5034537;28;20040;-79
2022/10/09 05:11:17;;;;;;;6.55;5.72;;;4.10;99.90;;;;;;5026010;28;20029;-78
2022/10/09 05:13:45;;;;;;;6.13;5.53;;;4.10;99.90;;;;;;5031494;28;20032;-78
2022/10/09 05:16:16;;;;;;;4.88;4.47;;;4.00;99.90;;;;;;5029617;28;20137;-78
2022/10/09 05:18:47;;;;;;;4.50;4.10;;;3.90;99.90;;;;;;5028758;28;20084;-78
2022/10/09 05:21:13;;;;;;;5.10;4.60;;;3.90;99.90;;;;;;5026187;28;20541;-78
2022/10/09 05:23:39;;;;;;;6.97;5.70;;;3.80;99.90;;;;;;5036522;28;20029;-79
2022/10/09 05:26:07;;;;;;;10.30;8.27;;;3.80;99.90;;;;;;5032587;28;20029;-79
2022/10/09 05:28:34;;;;;;;7.25;6.45;;;3.80;99.90;;;;;;5024929;28;20099;-79
2022/10/09 05:31:02;;;;;;;7.60;6.57;;;3.80;99.90;;;;;;5035199;28;20123;-78
2022/10/09 05:33:28;;;;;;;7.50;6.10;;;3.90;99.90;;;;;;5029154;28;20038;-79
2022/10/09 05:35:56;;;;;;;20.55;5.30;;;4.00;99.90;;;;;;5031657;28;20021;-79
2022/10/09 05:38:23;;;;;;;5.30;4.80;;;4.00;99.90;;;;;;5028258;28;20151;-78
2022/10/09 05:40:54;;;;;;;5.32;4.82;;;4.00;99.90;;;;;;5032641;28;20022;-78
2022/10/09 05:43:22;;;;;;;5.85;4.85;;;4.00;99.90;;;;;;5035149;28;20525;-78
2022/10/09 05:45:48;;;;;;;6.60;5.50;;;4.00;99.90;;;;;;5029754;28;20168;-79
2022/10/09 05:48:14;;;;;;;6.30;5.10;;;4.10;99.90;;;;;;5035411;28;20021;-78
2022/10/09 05:50:40;;;;;;;18.60;5.35;;;4.10;99.90;;;;;;5025649;28;20041;-79
2022/10/09 05:53:05;;;;;;;5.85;5.25;;;4.00;99.90;;;;;;5032955;28;20025;-78
2022/10/09 05:55:31;;;;;;;5.70;5.18;;;4.00;99.90;;;;;;5024970;28;20032;-78
2022/10/09 05:57:56;;;;;;;5.10;4.60;;;3.90;99.90;;;;;;5026872;28;20374;-78
2022/10/09 06:00:22;;;;;;;6.45;4.55;;;3.90;99.90;;;;;;5033001;28;20535;-78
2022/10/09 06:02:47;;;;;;;12.02;4.45;;;3.90;99.90;;;;;;5034419;28;20044;-78
2022/10/09 06:05:13;;;;;;;4.65;4.15;;;4.00;99.90;;;;;;5027239;28;20072;-78
2022/10/09 06:07:39;;;;;;;4.25;3.85;;;3.90;99.90;;;;;;5026469;28;20390;-77
2022/10/09 06:10:05;;;;;;;4.10;3.70;;;3.80;99.90;;;;;;5027596;28;20254;-78
2022/10/09 06:12:30;;;;;;;5.82;4.55;;;3.80;99.90;;;;;;5020757;28;20040;-78
2022/10/09 06:14:56;;;;;;;4.60;4.20;;;3.80;99.90;;;;;;5033469;28;20036;-78
2022/10/09 06:17:22;;;;;;;4.72;4.22;;;3.80;99.90;;;;;;5029382;28;20010;-78
2022/10/09 06:19:47;;;;;;;4.90;4.40;;;3.80;99.90;;;;;;5026224;28;20147;-77
2022/10/09 06:22:13;;;;;;;14.90;4.57;;;3.80;99.90;;;;;;5034541;28;20108;-78
2022/10/09 06:24:38;;;;;;;8.20;4.30;;;3.80;99.90;;;;;;5034913;28;20086;-78
2022/10/09 06:27:04;;;;;;;4.60;4.20;;;3.80;99.90;;;;;;5041921;28;20021;-78
2022/10/09 06:29:30;;;;;;;5.55;5.05;;;3.80;99.90;;;;;;5038068;28;20069;-78
2022/10/09 06:31:56;;;;;;;5.35;4.85;;;3.90;99.90;;;;;;5029203;28;20033;-78
2022/10/09 06:34:22;;;;;;;5.28;4.70;;;4.00;99.90;;;;;;5033583;28;20032;-78
2022/10/09 06:36:48;;;;;;;5.20;4.70;;;4.00;99.90;;;;;;5030173;28;20128;-78
2022/10/09 06:39:14;;;;;;;5.18;4.68;;;4.10;99.90;;;;;;4679463;28;10000345;-78
2022/10/09 06:41:39;;;;;;;5.90;5.32;;;4.20;99.90;;;;;;5026847;28;20131;-78
2022/10/09 06:44:07;;;;;;;4.57;4.13;;;4.20;99.90;;;;;;5034101;28;20057;-78
2022/10/09 06:46:38;;;;;;;4.07;3.15;;;4.30;99.90;;;;;;5025219;28;20125;-79
2022/10/09 06:49:06;;;;;;;3.50;3.20;;;4.30;99.90;;;;;;5032582;28;20037;-78
2022/10/09 06:51:32;;;;;;;3.88;3.55;;;4.40;99.90;;;;;;5034118;28;20060;-78
2022/10/09 06:54:00;;;;;;;3.30;3.00;;;4.40;99.90;;;;;;5036232;28;20033;-79
2022/10/09 06:56:27;;;;;;;3.47;3.17;;;4.40;99.90;;;;;;5033802;28;20017;-79
2022/10/09 06:58:53;;;;;;;3.65;3.35;;;4.40;99.90;;;;;;5030980;28;20025;-79
2022/10/09 07:01:25;;;;;;;5.57;4.05;;;4.50;99.90;;;;;;5031464;28;20116;-79
2022/10/09 07:03:58;;;;;;;4.60;4.07;;;4.50;99.90;;;;;;5024513;28;20029;-79
2022/10/09 07:06:26;;;;;;;6.88;2.58;;;4.60;99.90;;;;;;5032688;28;20111;-80
2022/10/09 07:09:05;;;;;;;4.20;3.80;;;4.60;99.90;;;;;;5040418;28;20048;-79
2022/10/09 07:11:36;;;;;;;3.90;3.55;;;4.70;99.90;;;;;;5026961;28;20413;-79
2022/10/09 07:14:04;;;;;;;4.80;3.90;;;4.60;99.90;;;;;;5028342;28;20072;-73
2022/10/09 07:16:33;;;;;;;21.13;3.97;;;4.70;99.90;;;;;;5030855;28;20351;-72
2022/10/09 07:19:02;;;;;;;10.63;4.22;;;4.70;99.90;;;;;;5024270;28;20238;-74
2022/10/09 07:21:28;;;;;;;6.00;5.20;;;4.70;99.90;;;;;;5024889;28;20029;-75
2022/10/09 07:23:53;;;;;;;17.13;9.20;;;4.70;99.90;;;;;;5024847;28;20036;-76
2022/10/09 07:26:25;;;;;;;15.82;8.73;;;4.80;99.90;;;;;;5033134;28;20059;-83
2022/10/09 07:28:51;;;;;;;8.50;6.80;;;4.90;99.90;;;;;;5030225;28;20043;-76
2022/10/09 07:31:17;;;;;;;8.02;6.20;;;5.00;99.90;;;;;;5028312;28;20040;-77
2022/10/09 07:33:50;;;;;;;7.25;5.30;;;5.10;99.90;;;;;;5029402;28;20037;-75
2022/10/09 07:36:16;;;;;;;5.53;5.03;;;5.10;99.90;;;;;;5031438;28;20115;-75
2022/10/09 07:38:42;;;;;;;5.15;4.65;;;5.10;99.90;;;;;;5025820;28;20022;-75
2022/10/09 07:41:10;;;;;;;9.52;4.88;;;5.20;99.90;;;;;;5026311;28;20524;-74
2022/10/09 07:43:38;;;;;;;6.32;5.55;;;5.30;99.90;;;;;;5031256;28;20033;-75
2022/10/09 07:46:06;;;;;;;16.48;4.93;;;5.40;99.90;;;;;;5033642;28;20123;-76
2022/10/09 07:48:33;;;;;;;7.00;4.78;;;5.40;99.90;;;;;;5032884;28;20511;-75
2022/10/09 07:51:10;;;;;;;9.23;5.30;;;5.50;99.90;;;;;;5034719;28;20146;-76
2022/10/09 07:53:36;;;;;;;4.88;4.47;;;5.50;99.90;;;;;;5031624;28;20562;-73
2022/10/09 07:56:03;;;;;;;6.43;5.55;;;5.60;99.90;;;;;;5025257;28;20033;-73
2022/10/09 07:58:29;;;;;;;6.70;6.00;;;5.70;99.90;;;;;;5026013;28;20033;-78
2022/10/09 08:00:55;;;;;;;7.55;5.82;;;5.70;99.90;;;;;;5027922;28;20087;-75
2022/10/09 08:03:20;;;;;;;8.43;6.57;;;5.90;99.90;;;;;;5028495;28;20040;-77
2022/10/09 08:05:56;;;;;;;7.47;6.30;;;6.10;99.90;;;;;;5029606;28;20033;-80
2022/10/09 08:08:21;;;;;;;4.90;4.50;;;6.10;99.90;;;;;;5029384;28;20037;-74
2022/10/09 08:10:47;;;;;;;11.23;4.45;;;6.30;99.90;;;;;;5028643;28;20079;-74
2022/10/09 08:13:13;;;;;;;8.95;6.20;;;6.40;99.90;;;;;;5023312;28;20065;-75
2022/10/09 08:15:41;;;;;;;6.40;5.05;;;6.50;99.90;;;;;;5036351;28;20029;-74
2022/10/09 08:18:07;;;;;;;6.03;5.43;;;6.50;99.90;;;;;;5033473;28;20390;-79
2022/10/09 08:20:33;;;;;;;6.10;5.50;;;6.70;99.90;;;;;;5036337;28;20029;-75
2022/10/09 08:22:59;;;;;;;7.15;6.45;;;6.70;99.90;;;;;;5026132;28;20863;-79
2022/10/09 08:25:25;;;;;;;6.15;5.38;;;6.80;99.90;;;;;;5034697;28;20083;-76
2022/10/09 08:27:54;;;;;;;6.93;6.22;;;6.90;99.90;;;;;;5033667;28;20087;-75
2022/10/09 08:30:20;;;;;;;6.00;5.40;;;7.00;99.90;;;;;;5037096;28;20040;-78
2022/10/09 08:32:46;;;;;;;6.10;5.05;;;7.10;99.90;;;;;;5030531;28;20029;-78
2022/10/09 08:35:12;;;;;;;4.78;4.28;;;7.30;99.90;;;;;;5032012;28;20021;-78
2022/10/09 08:37:38;;;;;;;15.30;5.20;;;7.30;99.90;;;;;;5033861;28;20366;-78
2022/10/09 08:40:06;;;;;;;4.75;4.35;;;7.30;99.90;;;;;;5026999;28;20029;-75
2022/10/09 08:42:48;;;;;;;5.32;4.82;;;7.30;99.90;;;;;;5033626;28;20060;-76
2022/10/09 08:45:18;;;;;;;4.88;4.47;;;7.30;99.90;;;;;;5036381;28;20041;-80
2022/10/09 08:47:58;;;;;;;6.85;5.30;;;7.40;99.90;;;;;;5041353;28;20044;-79
2022/10/09 08:50:29;;;;;;;6.80;6.10;;;7.60;99.90;;;;;;5035849;28;20102;-74
2022/10/09 08:53:00;;;;;;;5.68;5.18;;;;;;;;;;5031309;28;20036;-76
2022/10/09 08:55:28;;;;;;;5.22;4.72;;;;;;;;;;5034136;28;20424;-78
2022/10/09 08:57:55;;;;;;;5.13;4.55;;;;;;;;;;5029084;28;20033;-76
2022/10/09 09:00:24;;;;;;;9.25;4.90;;;;;;;;;;5023492;28;20509;-76
2022/10/09 09:03:02;;;;;;;7.43;5.03;;;;;;;;;;5023669;28;20024;-81
2022/10/09 09:05:55;;;;;;;5.70;4.85;;;;;;;;;;5031393;28;20032;-75
2022/10/09 09:08:29;;;;;;;5.55;5.05;;;;;;;;;;5027873;28;20548;-77
2022/10/09 09:11:05;;;;;;;6.05;5.00;;;;;;;;;;5026469;28;20549;-76
2022/10/09 09:13:55;;;;;;;6.25;4.65;;;9.50;99.90;;;;;;5032956;28;20090;-77
2022/10/09 09:16:34;;;;;;;6.38;4.03;;;9.50;99.90;;;;;;5029649;28;20029;-76
2022/10/09 09:19:29;;;;;;;5.72;4.72;;;9.60;99.90;;;;;;5033305;28;20034;-76
2022/10/09 09:21:57;;;;;;;5.70;4.72;;;9.80;99.90;;;;;;5030647;28;20029;-74
2022/10/09 09:24:39;;;;;;;6.90;4.78;;;9.90;99.90;;;;;;5031484;28;20021;-79
2022/10/09 09:27:20;;;;;;;5.18;4.68;;;10.00;99.90;;;;;;5034778;28;20453;-75
2022/10/09 09:30:02;;;;;;;5.85;4.18;;;10.20;99.90;;;;;;5038138;28;20047;-77
2022/10/09 09:32:29;;;;;;;6.70;4.38;;;10.20;99.90;;;;;;5021245;28;20033;-77
2022/10/09 09:35:14;;;;;;;6.35;4.15;;;10.30;99.90;;;;;;5025123;28;20053;-79
2022/10/09 09:37:39;;;;;;;;;;;10.50;99.90;;;;;;5028922;28;20033;-80
2022/10/09 09:40:15;;;;;;;8.27;4.85;;;10.60;99.90;;;;;;5028947;28;19909;-77
2022/10/09 09:42:42;;;;;;;7.55;6.28;;;10.70;99.90;;;;;;5032902;28;20765;-79
2022/10/09 09:45:15;;;;;;;7.60;6.10;;;10.80;99.90;;;;;;5038409;28;20029;-75
2022/10/09 09:47:48;;;;;;;6.25;5.57;;;10.90;99.90;;;;;;5024825;28;20044;-75
2022/10/09 09:50:14;;;;;;;6.38;5.63;;;11.00;99.90;;;;;;5028420;28;20039;-79
2022/10/09 09:52:43;;;;;;;5.28;4.75;;;11.10;99.90;;;;;;5030105;28;20402;-77
2022/10/09 09:55:28;;;;;;;6.25;5.35;;;11.10;99.90;;;;;;5031906;28;20057;-76
2022/10/09 09:58:04;;;;;;;9.38;5.25;;;11.20;99.90;;;;;;5031510;28;20025;-76
2022/10/09 10:00:30;;;;;;;5.95;5.35;;;11.20;99.90;;;;;;5030661;28;20060;-75
2022/10/09 10:03:10;;;;;;;6.60;5.22;;;11.30;99.90;;;;;;5031526;28;20104;-75
2022/10/09 10:05:37;;;;;;;7.07;6.07;;;11.40;99.90;;;;;;5030360;28;20029;-76
2022/10/09 10:08:24;;;;;;;9.52;6.28;;;11.40;99.90;;;;;;5027917;28;20037;-76
2022/10/09 10:10:52;;;;;;;15.35;6.20;;;11.60;99.90;;;;;;5037895;28;20037;-75
2022/10/09 10:13:21;;;;;;;8.95;6.30;;;11.60;99.90;;;;;;5034394;28;20056;-75
2022/10/09 10:15:49;;;;;;;9.90;6.28;;;;;;;;;;5029613;28;20131;-79
2022/10/09 10:18:17;;;;;;;7.32;5.45;;;11.90;99.90;;;;;;5028073;28;20664;-77
2022/10/09 10:20:50;;;;;;;8.52;6.30;;;11.90;99.90;;;;;;5034397;28;20551;-76
2022/10/09 10:23:34;;;;;;;;;;;12.00;99.90;;;;;;5032435;28;20037;-75
2022/10/09 10:26:15;;;;;;;;;;;12.00;99.90;;;;;;5029700;28;19908;-76
2022/10/09 10:29:04;;;;;;;7.03;5.43;;;12.00;99.90;;;;;;5024438;28;19925;-78
2022/10/09 10:32:07;;;;;;;9.68;4.82;;;12.20;99.90;;;;;;5030007;28;20065;-78
2022/10/09 10:34:57;;;;;;;8.80;4.78;;;12.20;99.90;;;;;;5026529;28;20037;-78
2022/10/09 10:37:27;;;;;;;7.28;4.40;;;12.40;99.90;;;;;;5035567;28;20104;-78
2022/10/09 10:39:58;;;;;;;6.63;4.30;;;12.50;99.90;;;;;;5022854;28;20034;-78
2022/10/09 10:42:35;;;;;;;6.47;3.88;;;12.60;99.90;;;;;;5023683;28;20036;-78
2022/10/09 10:45:11;;;;;;;6.32;3.85;;;12.60;99.90;;;;;;5026714;28;20663;-78
2022/10/09 10:47:43;;;;;;;4.97;3.65;;;12.70;99.90;;;;;;5030020;28;20032;-79
2022/10/09 10:50:13;;;;;;;4.95;3.50;;;12.80;99.90;;;;;;5024587;28;20037;-78
2022/10/09 10:52:43;;;;;;;5.93;3.78;;;13.00;99.90;;;;;;5029184;28;20739;-77
2022/10/09 10:55:25;;;;;;;11.65;7.28;;;13.10;99.90;;;;;;5027906;28;20497;-78
2022/10/09 10:58:20;;;;;;;5.35;3.42;;;13.20;99.90;;;;;;5028707;28;20060;-77
2022/10/09 11:00:57;;;;;;;5.13;2.85;;;13.40;99.90;;;;;;5022807;28;20017;-77
2022/10/09 11:03:52;;;;;;;7.35;3.50;;;13.50;99.90;;;;;;5026792;28;20385;-77
2022/10/09 11:06:55;;;;;;;6.13;3.00;;;13.60;99.90;;;;;;5025746;28;20492;-77
2022/10/09 11:09:34;;;;;;;3.92;2.50;;;13.70;99.90;;;;;;5022486;28;20036;-77
2022/10/09 11:12:20;;;;;;;5.90;2.50;;;13.80;99.90;;;;;;5041371;28;20154;-77
2022/10/09 11:15:24;;;;;;;5.43;2.67;;;14.00;99.90;;;;;;5030650;28;20385;-77
2022/10/09 11:17:52;;;;;;;5.40;2.47;;;14.10;99.90;;;;;;5037226;28;20458;-77
2022/10/09 11:20:56;;;;;;;6.70;2.17;;;14.10;99.90;;;;;;5034026;28;20048;-77
2022/10/09 11:23:48;;;;;;;5.78;2.05;;;14.20;99.90;;;;;;5031290;28;20084;-77
2022/10/09 11:26:32;;;;;;;5.68;2.50;;;14.30;99.90;;;;;;5049104;28;20432;-77
2022/10/09 11:29:12;;;;;;;6.40;1.92;;;14.40;99.90;;;;;;5031230;28;20045;-77
2022/10/09 11:31:44;;;;;;;5.60;2.13;;;14.50;99.90;;;;;;5033777;28;20532;-77
2022/10/09 11:34:20;;;;;;;6.38;1.92;;;14.60;99.90;;;;;;5029173;28;20044;-77
2022/10/09 11:36:46;;;;;;;4.90;2.00;;;14.70;99.90;;;;;;5035839;28;20229;-77
2022/10/09 11:39:17;;;;;;;6.47;1.65;;;14.70;99.90;;;;;;5040594;28;20447;-77
2022/10/09 11:41:46;;;;;;;4.70;2.00;;;14.80;99.90;;;;;;5029963;28;20033;-77
2022/10/09 11:44:36;;;;;;;4.10;1.48;;;14.90;99.90;;;;;;5029667;28;20504;-77
2022/10/09 11:47:11;;;;;;;6.03;1.73;;;15.00;99.90;;;;;;5048291;28;20033;-77
2022/10/09 11:49:58;;;;;;;3.13;1.10;;;15.10;99.90;;;;;;5034963;28;20095;-77
2022/10/09 11:52:49;;;;;;;4.15;1.25;;;15.10;99.90;;;;;;5039007;28;20528;-77
2022/10/09 11:55:17;;;;;;;3.97;1.30;;;15.20;99.90;;;;;;5032745;28;20040;-77
2022/10/09 11:57:43;;;;;;;4.13;1.20;;;15.30;99.90;;;;;;5033267;28;20033;-77
2022/10/09 12:00:09;;;;;;;4.78;1.40;;;15.40;99.90;;;;;;5039108;28;20063;-76
2022/10/09 12:02:36;;;;;;;5.43;1.52;;;15.40;99.90;;;;;;5047007;28;20033;-77
2022/10/09 12:05:35;;;;;;;4.07;1.70;;;15.50;99.90;;;;;;5043942;28;20017;-77
2022/10/09 12:08:25;;;;;;;6.13;1.40;;;15.50;99.90;;;;;;5036011;28;20051;-77
2022/10/09 12:11:05;;;;;;;4.40;1.40;;;15.60;99.90;;;;;;5034639;28;20028;-77
2022/10/09 12:13:43;;;;;;;3.28;1.20;;;15.60;99.90;;;;;;5028325;28;20057;-77
2022/10/09 12:16:32;;;;;;;3.65;1.30;;;15.60;99.90;;;;;;5036808;28;20031;-77
2022/10/09 12:19:01;;;;;;;3.92;1.60;;;15.60;99.90;;;;;;5031789;28;20497;-77
2022/10/09 12:21:49;;;;;;;3.28;1.30;;;15.70;99.90;;;;;;5045588;28;20025;-77
2022/10/09 12:24:19;;;;;;;2.08;1.17;;;15.80;99.90;;;;;;5041764;28;20064;-76
2022/10/09 12:26:47;;;;;;;4.03;1.20;;;15.90;99.90;;;;;;5030077;28;20033;-76
2022/10/09 12:29:48;;;;;;;3.25;1.20;;;16.10;99.90;;;;;;5027756;28;20055;-76
2022/10/09 12:32:26;;;;;;;7.47;1.70;;;16.20;99.90;;;;;;5043642;28;20036;-76
2022/10/09 12:34:52;;;;;;;1.67;0.90;;;16.30;99.90;;;;;;5028728;28;20409;-76
2022/10/09 12:37:21;;;;;;;2.92;0.90;;;16.40;99.90;;;;;;5040639;28;20060;-77
2022/10/09 12:39:48;;;;;;;4.05;1.40;;;16.30;99.90;;;;;;5031254;28;20108;-77
2022/10/09 12:42:21;;;;;;;4.47;0.90;;;16.40;99.90;;;;;;5032249;28;20029;-77
2022/10/09 12:44:49;;;;;;;4.38;1.20;;;16.40;99.90;;;;;;5030384;28;20120;-77
2022/10/09 12:47:25;;;;;;;5.13;1.33;;;16.50;99.90;;;;;;5040493;28;20444;-77
2022/10/09 12:50:02;;;;;;;4.55;1.90;;;16.50;99.90;;;;;;5038637;28;20249;-77
2022/10/09 12:52:29;;;;;;;7.05;2.10;;;16.60;99.90;;;;;;5031021;28;20041;-77
2022/10/09 12:54:55;;;;;;;6.53;1.65;;;16.60;99.90;;;;;;5043133;28;20108;-77
2022/10/09 12:57:21;;;;;;;3.90;0.93;;;16.70;99.90;;;;;;5042632;28;20519;-77
2022/10/09 12:59:48;;;;;;;3.75;1.02;;;16.80;99.90;;;;;;5038163;28;20025;-77
2022/10/09 13:02:15;;;;;;;6.57;1.10;;;16.80;99.90;;;;;;5028004;28;20379;-77
2022/10/09 13:04:52;;;;;;;4.63;1.20;;;16.80;99.90;;;;;;5027839;28;20092;-77
2022/10/09 13:07:20;;;;;;;2.90;0.82;;;16.80;99.90;;;;;;5032059;28;20021;-77
2022/10/09 13:09:46;;;;;;;4.82;1.30;;;16.80;99.90;;;;;;5040961;28;20033;-77
2022/10/09 13:12:20;;;;;;;3.53;1.00;;;16.70;99.90;;;;;;5030427;28;20103;-77
2022/10/09 13:15:04;;;;;;;4.82;1.08;;;16.70;99.90;;;;;;5028122;28;20064;-77